createdAt,value
2023-01-25T00:00:50.309Z,84.51
2023-01-25T00:03:17.543Z,84.75
2023-01-25T00:05:44.504Z,84.81
2023-01-25T00:08:11.616Z,85.11
2023-01-25T00:10:38.696Z,85.34
2023-01-25T00:13:05.873Z,85.68
2023-01-25T00:15:32.720Z,85.76
2023-01-25T00:17:59.948Z,85.56
2023-01-25T00:20:27.049Z,85.78
2023-01-25T00:22:53.981Z,85.42
2023-01-25T00:25:20.896Z,85.28
2023-01-25T00:27:47.995Z,85.63
2023-01-25T00:30:17.211Z,86.38
2023-01-25T00:33:08.793Z,86.70
2023-01-25T00:35:35.863Z,85.86
2023-01-25T00:38:18.410Z,86.24
2023-01-25T00:40:45.435Z,85.53
2023-01-25T00:43:14.499Z,85.47
2023-01-25T00:45:41.623Z,85.28
2023-01-25T00:48:09.389Z,85.44
2023-01-25T00:50:39.622Z,85.50
2023-01-25T00:53:07.640Z,85.12
2023-01-25T00:55:34.564Z,85.15
2023-01-25T00:58:01.579Z,85.10
2023-01-25T01:00:28.645Z,84.46
2023-01-25T01:02:57.325Z,84.47
2023-01-25T01:05:24.373Z,84.47
2023-01-25T01:07:51.494Z,84.79
2023-01-25T01:10:19.291Z,84.83
2023-01-25T01:12:46.149Z,85.49
2023-01-25T01:15:13.060Z,85.68
2023-01-25T01:17:40.174Z,85.60
2023-01-25T01:20:07.454Z,85.41
2023-01-25T01:22:34.561Z,85.79
2023-01-25T01:25:01.651Z,85.54
2023-01-25T01:27:30.315Z,85.27
2023-01-25T01:29:57.648Z,85.25
2023-01-25T01:32:24.787Z,85.04
2023-01-25T01:34:52.119Z,85.15
2023-01-25T01:37:19.091Z,85.46
2023-01-25T01:39:46.032Z,85.65
2023-01-25T01:42:12.985Z,85.44
2023-01-25T01:44:51.498Z,85.55
2023-01-25T01:47:41.431Z,85.26
2023-01-25T01:50:21.207Z,85.52
2023-01-25T01:52:50.554Z,85.76
2023-01-25T01:55:22.670Z,86.13
2023-01-25T01:57:58.198Z,85.97
2023-01-25T02:00:29.857Z,86.13
2023-01-25T02:02:58.511Z,86.68
2023-01-25T02:06:03.879Z,86.58
2023-01-25T02:08:35.902Z,86.10
2023-01-25T02:11:05.174Z,86.25
2023-01-25T02:13:32.380Z,86.69
2023-01-25T02:16:00.844Z,86.73
2023-01-25T02:18:29.492Z,86.93
2023-01-25T02:20:59.874Z,87.03
2023-01-25T02:23:40.750Z,87.45
2023-01-25T02:26:10.229Z,88.01
2023-01-25T02:28:49.789Z,87.70
2023-01-25T02:31:17.868Z,87.01
2023-01-25T02:33:45.147Z,86.80
2023-01-25T02:36:12.023Z,86.83
2023-01-25T02:38:43.124Z,87.42
2023-01-25T02:41:21.589Z,87.47
2023-01-25T02:43:48.612Z,87.68
2023-01-25T02:46:22.671Z,87.02
2023-01-25T02:48:49.714Z,87.03
2023-01-25T02:51:16.640Z,87.23
2023-01-25T02:53:43.768Z,87.21
2023-01-25T02:56:10.879Z,87.24
2023-01-25T02:58:38.245Z,87.22
2023-01-25T03:01:05.220Z,87.60
2023-01-25T03:03:32.309Z,87.98
2023-01-25T03:05:59.213Z,87.85
2023-01-25T03:08:27.841Z,87.38
2023-01-25T03:10:59.724Z,87.43
2023-01-25T03:13:29.702Z,87.60
2023-01-25T03:16:02.856Z,87.43
2023-01-25T03:18:30.329Z,87.07
2023-01-25T03:21:04.659Z,86.57
2023-01-25T03:23:31.829Z,86.38
2023-01-25T03:26:13.162Z,86.46
2023-01-25T03:28:55.355Z,86.61
2023-01-25T03:31:23.199Z,86.32
2023-01-25T03:33:50.980Z,85.76
2023-01-25T03:36:19.798Z,85.56
2023-01-25T03:38:47.326Z,85.66
2023-01-25T03:41:15.158Z,85.50
2023-01-25T03:43:44.204Z,85.55
2023-01-25T03:46:11.216Z,85.60
2023-01-25T03:48:39.054Z,85.45
2023-01-25T03:51:06.401Z,85.51
2023-01-25T03:53:33.949Z,85.55
2023-01-25T03:56:17.757Z,85.18
2023-01-25T03:58:51.647Z,84.68
2023-01-25T04:01:19.416Z,84.52
2023-01-25T04:03:46.437Z,84.74
2023-01-25T04:06:13.578Z,85.10
2023-01-25T04:08:40.599Z,85.41
2023-01-25T04:11:10.499Z,85.50
2023-01-25T04:13:38.836Z,85.61
2023-01-25T04:16:12.307Z,85.50
2023-01-25T04:18:59.617Z,85.48
2023-01-25T04:21:28.366Z,85.44
2023-01-25T04:23:56.328Z,85.35
2023-01-25T04:26:23.643Z,85.59
2023-01-25T04:28:58.391Z,85.86
2023-01-25T04:31:25.530Z,85.83
2023-01-25T04:33:53.088Z,86.21
2023-01-25T04:36:20.815Z,86.17
2023-01-25T04:38:48.327Z,86.01
2023-01-25T04:41:15.503Z,86.09
2023-01-25T04:43:44.245Z,86.13
2023-01-25T04:46:11.550Z,86.28
2023-01-25T04:48:39.415Z,85.70
2023-01-25T04:51:09.496Z,85.07
2023-01-25T04:53:37.087Z,84.88
2023-01-25T04:56:07.288Z,84.81
2023-01-25T04:58:43.218Z,85.35
2023-01-25T05:01:11.563Z,85.51
2023-01-25T05:03:38.919Z,85.70
2023-01-25T05:06:12.874Z,85.31
2023-01-25T05:08:40.056Z,84.33
2023-01-25T05:11:07.236Z,83.75
2023-01-25T05:13:48.594Z,84.14
2023-01-25T05:16:22.400Z,84.48
2023-01-25T05:18:49.728Z,84.81
2023-01-25T05:21:39.839Z,84.67
2023-01-25T05:24:08.679Z,84.06
2023-01-25T05:26:54.304Z,84.46
2023-01-25T05:29:22.052Z,84.18
2023-01-25T05:31:55.237Z,84.19
2023-01-25T05:34:22.403Z,84.02
2023-01-25T05:36:50.464Z,84.23
2023-01-25T05:39:18.135Z,84.90
2023-01-25T05:41:47.637Z,84.73
2023-01-25T05:44:15.433Z,84.43
2023-01-25T05:46:46.544Z,84.38
2023-01-25T05:49:15.070Z,84.64
2023-01-25T05:51:42.482Z,84.58
2023-01-25T05:54:15.259Z,84.00
2023-01-25T05:56:49.536Z,84.20
2023-01-25T05:59:17.478Z,84.11
2023-01-25T06:01:44.806Z,84.45
2023-01-25T06:04:15.980Z,84.69
2023-01-25T06:06:43.838Z,85.22
2023-01-25T06:09:12.418Z,85.19
2023-01-25T06:11:42.903Z,84.97
2023-01-25T06:14:10.201Z,84.86
2023-01-25T06:16:38.270Z,84.50
2023-01-25T06:19:23.746Z,83.79
2023-01-25T06:22:10.305Z,83.08
2023-01-25T06:24:37.436Z,83.35
2023-01-25T06:27:04.468Z,83.28
2023-01-25T06:29:31.516Z,83.58
2023-01-25T06:31:59.041Z,82.93
2023-01-25T06:34:26.318Z,81.78
2023-01-25T06:36:54.368Z,81.89
2023-01-25T06:39:21.490Z,81.80
2023-01-25T06:41:48.586Z,81.78
2023-01-25T06:44:18.169Z,82.42
2023-01-25T06:46:45.117Z,82.52
2023-01-25T06:49:12.647Z,82.57
2023-01-25T06:51:39.839Z,82.53
2023-01-25T06:54:06.875Z,82.27
2023-01-25T06:56:33.873Z,81.85
2023-01-25T06:59:00.967Z,81.73
2023-01-25T07:01:30.428Z,82.12
2023-01-25T07:03:59.145Z,82.22
2023-01-25T07:06:32.109Z,81.21
2023-01-25T07:09:06.911Z,80.95
2023-01-25T07:11:34.394Z,81.52
2023-01-25T07:14:01.449Z,81.98
2023-01-25T07:16:28.513Z,81.77
2023-01-25T07:18:55.755Z,81.78
2023-01-25T07:21:23.940Z,81.81
2023-01-25T07:23:51.580Z,80.78
2023-01-25T07:26:24.705Z,80.39
2023-01-25T07:28:52.843Z,81.51
2023-01-25T07:31:20.988Z,81.39
2023-01-25T07:33:49.716Z,81.24
2023-01-25T07:36:17.165Z,81.06
2023-01-25T07:38:44.399Z,80.58
2023-01-25T07:41:12.255Z,80.96
2023-01-25T07:43:39.550Z,80.68
2023-01-25T07:46:12.618Z,80.56
2023-01-25T07:48:45.195Z,80.26
2023-01-25T07:51:12.702Z,80.02
2023-01-25T07:53:44.493Z,79.90
2023-01-25T07:56:12.759Z,79.87
2023-01-25T07:58:40.234Z,80.60
2023-01-25T08:01:12.984Z,80.56
2023-01-25T08:03:40.191Z,80.57
2023-01-25T08:06:08.275Z,80.60
2023-01-25T08:08:55.575Z,80.69
2023-01-25T08:11:26.437Z,80.51
2023-01-25T08:13:54.199Z,80.21
2023-01-25T08:16:24.389Z,80.09
2023-01-25T08:18:54.339Z,80.52
2023-01-25T08:21:24.436Z,80.68
2023-01-25T08:23:52.026Z,81.33
2023-01-25T08:26:19.132Z,80.99
2023-01-25T08:28:46.131Z,81.33
2023-01-25T08:31:19.211Z,80.97
2023-01-25T08:33:47.000Z,81.07
2023-01-25T08:36:15.553Z,80.96
2023-01-25T08:38:45.781Z,80.35
2023-01-25T08:41:18.250Z,80.30
2023-01-25T08:43:46.814Z,80.13
2023-01-25T08:46:15.749Z,80.16
2023-01-25T08:48:42.623Z,80.34
2023-01-25T08:51:12.795Z,80.11
2023-01-25T08:53:39.726Z,79.67
2023-01-25T08:56:10.408Z,80.20
2023-01-25T08:58:38.173Z,80.57
2023-01-25T09:01:07.605Z,80.99
2023-01-25T09:03:39.179Z,81.28
2023-01-25T09:06:06.767Z,82.09
2023-01-25T09:08:34.417Z,82.33
2023-01-25T09:11:07.480Z,82.29
2023-01-25T09:13:34.627Z,82.49
2023-01-25T09:16:03.126Z,82.13
2023-01-25T09:18:31.234Z,81.92
2023-01-25T09:20:59.091Z,81.23
2023-01-25T09:23:26.991Z,80.94
2023-01-25T09:25:58.720Z,80.37
2023-01-25T09:28:27.191Z,80.58
2023-01-25T09:31:18.791Z,80.76
2023-01-25T09:34:15.258Z,81.07
2023-01-25T09:36:42.907Z,81.37
2023-01-25T09:39:14.467Z,81.17
2023-01-25T09:41:44.502Z,81.42
2023-01-25T09:44:53.020Z,81.96
2023-01-25T09:47:42.935Z,81.79
2023-01-25T09:50:28.634Z,80.72
2023-01-25T09:53:15.995Z,81.24
2023-01-25T09:55:43.201Z,81.65
2023-01-25T09:58:20.814Z,81.77
2023-01-25T10:00:52.811Z,81.03
2023-01-25T10:03:34.274Z,81.16
2023-01-25T10:06:03.006Z,81.25
2023-01-25T10:08:43.048Z,80.60
2023-01-25T10:11:30.477Z,80.63
2023-01-25T10:13:59.145Z,80.17
2023-01-25T10:16:33.260Z,78.65
2023-01-25T10:19:10.580Z,78.49
2023-01-25T10:21:47.369Z,78.11
2023-01-25T10:24:26.662Z,77.15
2023-01-25T10:26:58.203Z,77.33
2023-01-25T10:29:33.263Z,77.03
2023-01-25T10:32:19.852Z,77.49
2023-01-25T10:34:57.166Z,76.07
2023-01-25T10:37:32.251Z,75.07
2023-01-25T10:39:59.943Z,74.93
2023-01-25T10:42:30.409Z,73.85
2023-01-25T10:44:57.377Z,74.16
2023-01-25T10:47:27.617Z,73.54
2023-01-25T10:49:56.986Z,74.04
2023-01-25T10:52:30.273Z,73.99
2023-01-25T10:55:16.054Z,73.69
2023-01-25T10:58:00.939Z,74.17
2023-01-25T11:00:51.897Z,73.70
2023-01-25T11:03:22.491Z,72.60
2023-01-25T11:05:57.520Z,72.30
2023-01-25T11:08:30.770Z,71.67
2023-01-25T11:11:02.465Z,71.04
2023-01-25T11:13:33.421Z,70.61
2023-01-25T11:16:01.931Z,70.97
2023-01-25T11:18:35.140Z,71.33
2023-01-25T11:21:19.577Z,70.97
2023-01-25T11:24:02.030Z,70.92
2023-01-25T11:26:31.938Z,70.47
2023-01-25T11:29:15.531Z,70.92
2023-01-25T11:31:46.646Z,70.28
2023-01-25T11:34:16.717Z,69.96
2023-01-25T11:37:07.736Z,70.41
2023-01-25T11:39:50.332Z,70.74
2023-01-25T11:42:28.540Z,70.40
2023-01-25T11:45:20.081Z,70.17
2023-01-25T11:48:06.542Z,70.41
2023-01-25T11:50:47.546Z,70.52
2023-01-25T11:53:34.140Z,70.21
2023-01-25T11:56:09.729Z,69.27
2023-01-25T11:58:58.345Z,69.42
2023-01-25T12:01:51.657Z,69.77
2023-01-25T12:04:37.603Z,69.94
2023-01-25T12:07:34.749Z,70.04
2023-01-25T12:10:22.800Z,70.31
2023-01-25T12:13:48.454Z,69.67
2023-01-25T12:16:30.528Z,70.30
2023-01-25T12:19:13.997Z,70.90
2023-01-25T12:22:21.984Z,70.98
2023-01-25T12:24:54.862Z,71.42
2023-01-25T12:27:31.218Z,71.68
2023-01-25T12:30:21.779Z,71.08
2023-01-25T12:33:08.890Z,71.32
2023-01-25T12:35:47.038Z,71.09
2023-01-25T12:38:27.676Z,71.23
2023-01-25T12:41:18.998Z,71.11
2023-01-25T12:43:52.525Z,71.92
2023-01-25T12:46:34.784Z,71.53
2023-01-25T12:49:11.974Z,71.10
2023-01-25T12:51:41.716Z,71.24
2023-01-25T12:54:30.368Z,70.56
2023-01-25T12:57:16.660Z,71.00
2023-01-25T12:59:50.539Z,71.33
2023-01-25T13:02:39.495Z,71.40
2023-01-25T13:05:22.241Z,71.73
2023-01-25T13:07:55.757Z,71.46
2023-01-25T13:10:45.996Z,71.56
2023-01-25T13:13:29.269Z,71.40
2023-01-25T13:15:57.776Z,71.05
2023-01-25T13:18:24.698Z,70.84
2023-01-25T13:21:00.838Z,71.13
2023-01-25T13:23:50.855Z,71.14
2023-01-25T13:26:21.323Z,70.50
2023-01-25T13:28:53.391Z,71.24
2023-01-25T13:31:51.102Z,71.18
2023-01-25T13:34:42.388Z,71.00
2023-01-25T13:37:21.806Z,70.75
2023-01-25T13:40:08.485Z,70.64
2023-01-25T13:42:38.663Z,71.30
2023-01-25T13:45:18.673Z,71.82
2023-01-25T13:48:01.595Z,71.55
2023-01-25T13:50:40.157Z,71.08
2023-01-25T13:53:21.370Z,70.77
2023-01-25T13:55:54.974Z,70.61
2023-01-25T13:58:31.167Z,70.58
2023-01-25T14:01:02.713Z,70.83
2023-01-25T14:03:51.739Z,70.98
2023-01-25T14:06:20.661Z,72.01
2023-01-25T14:08:50.084Z,72.75
2023-01-25T14:11:26.587Z,72.48
2023-01-25T14:14:20.589Z,72.50
2023-01-25T14:17:01.192Z,72.74
2023-01-25T14:19:30.112Z,72.59
2023-01-25T14:22:15.715Z,72.81
2023-01-25T14:24:42.870Z,72.67
2023-01-25T14:27:17.255Z,72.79
2023-01-25T14:29:48.869Z,73.76
2023-01-25T14:32:20.897Z,73.58
2023-01-25T14:34:48.207Z,73.53
2023-01-25T14:37:20.998Z,73.72
2023-01-25T14:39:51.120Z,73.50
2023-01-25T14:42:19.067Z,73.83
2023-01-25T14:44:46.517Z,74.42
2023-01-25T14:47:31.239Z,74.75
2023-01-25T14:50:34.285Z,74.92
2023-01-25T14:53:16.883Z,75.15
2023-01-25T14:55:46.349Z,75.92
2023-01-25T14:58:16.700Z,76.22
2023-01-25T15:00:52.690Z,75.99
2023-01-25T15:03:22.500Z,76.12
2023-01-25T15:05:49.815Z,76.55
2023-01-25T15:08:39.521Z,76.55
2023-01-25T15:11:45.323Z,76.79
2023-01-25T15:14:18.907Z,77.16
2023-01-25T15:16:46.413Z,77.28
2023-01-25T15:19:31.086Z,77.08
2023-01-25T15:22:00.533Z,76.91
2023-01-25T15:24:28.399Z,76.87
2023-01-25T15:26:56.426Z,77.04
2023-01-25T15:29:27.198Z,76.97
2023-01-25T15:31:56.671Z,77.11
2023-01-25T15:34:32.602Z,77.45
2023-01-25T15:36:59.685Z,77.72
2023-01-25T15:39:27.334Z,77.47
2023-01-25T15:41:54.457Z,77.23
2023-01-25T15:44:22.070Z,76.79
2023-01-25T15:46:52.322Z,77.05
2023-01-25T15:49:28.219Z,77.12
2023-01-25T15:51:56.220Z,77.12
2023-01-25T15:54:24.589Z,76.91
2023-01-25T15:56:56.607Z,77.25
2023-01-25T15:59:24.105Z,77.19
2023-01-25T16:01:51.341Z,76.89
2023-01-25T16:04:18.428Z,77.48
2023-01-25T16:06:45.702Z,77.88
2023-01-25T16:09:17.030Z,77.79
2023-01-25T16:11:45.635Z,77.37
2023-01-25T16:14:12.779Z,77.31
2023-01-25T16:16:46.132Z,77.05
2023-01-25T16:19:15.815Z,77.00
2023-01-25T16:21:43.807Z,76.86
2023-01-25T16:24:11.921Z,77.23
2023-01-25T16:26:51.007Z,77.00
2023-01-25T16:29:18.242Z,77.19
2023-01-25T16:31:45.588Z,77.20
2023-01-25T16:34:12.843Z,77.26
2023-01-25T16:36:40.163Z,76.71
2023-01-25T16:39:34.206Z,76.59
2023-01-25T16:42:02.716Z,76.73
2023-01-25T16:44:30.167Z,77.02
2023-01-25T16:46:57.660Z,76.65
2023-01-25T16:49:27.451Z,76.71
2023-01-25T16:51:55.825Z,76.59
2023-01-25T16:54:24.476Z,76.82
2023-01-25T16:56:53.477Z,77.29
2023-01-25T16:59:22.365Z,77.24
2023-01-25T17:01:51.727Z,77.14
2023-01-25T17:04:18.895Z,77.04
2023-01-25T17:06:49.574Z,77.36
2023-01-25T17:09:24.110Z,77.71
2023-01-25T17:11:55.443Z,78.02
2023-01-25T17:14:23.321Z,78.31
2023-01-25T17:16:53.846Z,78.10
2023-01-25T17:19:21.517Z,78.37
2023-01-25T17:21:48.595Z,78.14
2023-01-25T17:24:19.403Z,78.16
2023-01-25T17:26:46.884Z,78.47
2023-01-25T17:29:14.399Z,78.87
2023-01-25T17:31:42.583Z,78.76
2023-01-25T17:34:16.366Z,78.80
2023-01-25T17:36:45.385Z,79.23
2023-01-25T17:39:15.553Z,79.47
2023-01-25T17:41:43.853Z,79.73
2023-01-25T17:44:11.544Z,79.73
2023-01-25T17:46:38.808Z,79.83
2023-01-25T17:49:08.520Z,79.61
2023-01-25T17:51:36.585Z,79.48
2023-01-25T17:54:05.418Z,79.44
2023-01-25T17:56:34.038Z,79.53
2023-01-25T17:59:02.466Z,79.84
2023-01-25T18:01:32.329Z,79.82
2023-01-25T18:04:00.781Z,80.00
2023-01-25T18:06:29.903Z,80.26
2023-01-25T18:09:03.031Z,80.52
2023-01-25T18:11:32.908Z,80.46
2023-01-25T18:14:03.698Z,80.53
2023-01-25T18:16:32.352Z,80.20
2023-01-25T18:19:01.408Z,80.29
2023-01-25T18:21:31.851Z,80.02
2023-01-25T18:24:02.441Z,79.67
2023-01-25T18:26:33.509Z,79.83
2023-01-25T18:29:40.672Z,79.39
2023-01-25T18:32:08.021Z,79.16
2023-01-25T18:34:39.016Z,79.42
2023-01-25T18:37:18.933Z,79.76
2023-01-25T18:39:52.013Z,79.92
2023-01-25T18:42:20.617Z,79.79
2023-01-25T18:44:50.464Z,79.72
2023-01-25T18:47:20.042Z,79.61
2023-01-25T18:49:48.058Z,79.50
2023-01-25T18:52:19.528Z,79.36
2023-01-25T18:54:46.950Z,78.93
2023-01-25T18:57:15.046Z,78.75
2023-01-25T18:59:42.721Z,78.40
2023-01-25T19:02:12.654Z,78.67
2023-01-25T19:04:40.456Z,78.71
2023-01-25T19:07:07.706Z,78.46
2023-01-25T19:09:34.992Z,78.17
2023-01-25T19:12:02.074Z,78.56
2023-01-25T19:14:29.101Z,78.47
2023-01-25T19:16:56.796Z,78.56
2023-01-25T19:19:24.143Z,78.60
2023-01-25T19:21:51.705Z,78.66
2023-01-25T19:24:21.085Z,79.01
2023-01-25T19:26:48.245Z,78.96
2023-01-25T19:29:15.871Z,79.40
2023-01-25T19:31:43.329Z,78.86
2023-01-25T19:34:10.722Z,79.16
2023-01-25T19:36:43.799Z,79.37
2023-01-25T19:39:11.766Z,79.31
2023-01-25T19:41:39.102Z,79.30
2023-01-25T19:44:07.864Z,79.40
2023-01-25T19:46:36.221Z,79.82
2023-01-25T19:49:06.056Z,79.35
2023-01-25T19:51:35.545Z,79.54
2023-01-25T19:54:05.260Z,79.40
2023-01-25T19:56:41.068Z,79.32
2023-01-25T19:59:14.083Z,79.56
2023-01-25T20:01:45.243Z,79.58
2023-01-25T20:04:15.537Z,79.57
2023-01-25T20:06:46.303Z,79.30
2023-01-25T20:09:18.690Z,79.46
2023-01-25T20:11:47.339Z,79.88
2023-01-25T20:14:15.117Z,79.80
2023-01-25T20:16:42.152Z,79.82
2023-01-25T20:19:12.052Z,80.07
2023-01-25T20:21:39.973Z,80.00
2023-01-25T20:24:09.923Z,79.73
2023-01-25T20:26:39.808Z,79.76
2023-01-25T20:29:07.911Z,80.17
2023-01-25T20:31:41.170Z,80.18
2023-01-25T20:34:12.698Z,80.28
2023-01-25T20:36:41.560Z,79.99
2023-01-25T20:39:11.089Z,80.09
2023-01-25T20:41:38.143Z,80.28
2023-01-25T20:44:08.677Z,80.04
2023-01-25T20:46:38.752Z,80.27
2023-01-25T20:49:10.540Z,80.23
2023-01-25T20:51:37.754Z,80.11
2023-01-25T20:54:04.880Z,79.94
2023-01-25T20:56:32.787Z,80.39
2023-01-25T20:58:59.817Z,80.30
2023-01-25T21:01:33.387Z,80.64
2023-01-25T21:04:00.457Z,80.76
2023-01-25T21:06:28.631Z,80.66
2023-01-25T21:08:55.936Z,80.99
2023-01-25T21:11:26.308Z,80.87
2023-01-25T21:13:57.475Z,81.21
2023-01-25T21:16:24.613Z,80.96
2023-01-25T21:18:54.541Z,80.77
2023-01-25T21:21:34.668Z,80.82
2023-01-25T21:24:02.952Z,81.00
2023-01-25T21:26:33.024Z,81.30
2023-01-25T21:29:01.465Z,80.60
2023-01-25T21:31:32.799Z,80.60
2023-01-25T21:34:01.290Z,80.99
2023-01-25T21:36:28.756Z,80.51
2023-01-25T21:38:56.092Z,80.63
2023-01-25T21:41:25.836Z,80.09
2023-01-25T21:44:12.791Z,79.92
2023-01-25T21:46:40.474Z,79.61
2023-01-25T21:49:28.211Z,79.60
2023-01-25T21:52:02.124Z,79.63
2023-01-25T21:54:32.176Z,79.71
2023-01-25T21:57:00.668Z,79.79
2023-01-25T21:59:27.921Z,79.48
2023-01-25T22:01:55.800Z,79.47
2023-01-25T22:04:24.756Z,79.39
2023-01-25T22:06:54.926Z,79.85
2023-01-25T22:09:23.169Z,80.04
2023-01-25T22:11:51.035Z,80.17
2023-01-25T22:14:24.883Z,80.13
2023-01-25T22:16:54.307Z,80.41
2023-01-25T22:19:21.355Z,80.21
2023-01-25T22:21:48.531Z,80.41
2023-01-25T22:24:16.298Z,80.17
2023-01-25T22:26:50.794Z,80.29
2023-01-25T22:29:17.809Z,80.42
2023-01-25T22:31:44.822Z,80.51
2023-01-25T22:34:12.079Z,80.30
2023-01-25T22:36:39.067Z,80.55
2023-01-25T22:39:06.631Z,80.28
2023-01-25T22:41:36.904Z,80.29
2023-01-25T22:44:04.580Z,80.15
2023-01-25T22:46:31.751Z,80.36
2023-01-25T22:48:59.247Z,80.51
2023-01-25T22:51:29.292Z,80.51
2023-01-25T22:53:57.598Z,80.59
2023-01-25T22:56:31.819Z,80.16
2023-01-25T22:58:59.860Z,80.10
2023-01-25T23:01:29.814Z,80.06
2023-01-25T23:03:57.283Z,79.82
2023-01-25T23:06:27.374Z,80.25
2023-01-25T23:08:59.920Z,80.41
2023-01-25T23:11:35.450Z,80.55
2023-01-25T23:14:26.038Z,80.64
2023-01-25T23:16:53.497Z,80.58
2023-01-25T23:19:20.480Z,80.62
2023-01-25T23:21:47.507Z,79.47
2023-01-25T23:24:14.538Z,79.72
2023-01-25T23:26:46.591Z,79.72
2023-01-25T23:29:14.491Z,79.46
2023-01-25T23:31:41.975Z,79.58
2023-01-25T23:34:11.709Z,79.52
2023-01-25T23:36:39.673Z,79.78
2023-01-25T23:39:06.695Z,79.25
2023-01-25T23:41:34.024Z,79.05
2023-01-25T23:44:02.029Z,79.16
